Time;durP1;ratioP1;P1;durP2;ratioP2;P2;SDS_P1;SDS_P2;PMS_P1;PMS_P2;Temp;Humidity;BMP_temperature;BMP_pressure;BME280_temperature;BME280_humidity;BME280_pressure;Samples;Min_cycle;Max_cycle;Signal;HPM_P1;HPM_P2
2021/03/10 00:04:47;;;;;;;66.05;29.42;;;3.10;99.90;;;;;;12523021;28;20066;-86
2021/03/10 00:10:49;;;;;;;67.70;30.70;;;3.20;99.90;;;;;;12533860;28;20123;-85
2021/03/10 00:16:50;;;;;;;75.50;31.38;;;3.30;99.90;;;;;;12558782;28;20052;-85
2021/03/10 00:22:52;;;;;;;60.67;29.05;;;3.10;99.90;;;;;;12560480;28;20052;-85
2021/03/10 00:28:53;;;;;;;73.03;30.45;;;3.10;99.90;;;;;;12541983;28;20257;-85
2021/03/10 00:34:56;;;;;;;64.90;29.75;;;3.00;99.90;;;;;;12536031;28;20044;-85
2021/03/10 00:40:57;;;;;;;71.07;29.85;;;3.00;99.90;;;;;;12538330;28;20044;-85
2021/03/10 00:46:59;;;;;;;59.92;28.88;;;3.00;99.90;;;;;;12546852;28;20080;-85
2021/03/10 00:53:00;;;;;;;69.20;30.25;;;2.90;99.90;;;;;;12545176;28;20730;-85
2021/03/10 00:59:02;;;;;;;73.47;30.60;;;3.00;99.90;;;;;;12540763;28;20051;-85
2021/03/10 01:05:04;;;;;;;69.10;30.60;;;2.90;99.90;;;;;;12611676;28;20047;-85
2021/03/10 01:11:06;;;;;;;64.88;28.63;;;2.90;99.90;;;;;;12602440;28;20083;-85
2021/03/10 01:17:07;;;;;;;63.17;28.05;;;3.00;99.90;;;;;;12590729;28;20155;-86
2021/03/10 01:23:09;;;;;;;64.20;29.85;;;3.00;99.90;;;;;;12596648;28;20051;-85
2021/03/10 01:29:10;;;;;;;69.57;30.13;;;3.00;99.90;;;;;;12597788;28;20055;-86
2021/03/10 01:35:12;;;;;;;108.45;31.67;;;3.00;99.90;;;;;;12604781;28;20507;-85
2021/03/10 01:41:14;;;;;;;70.15;29.70;;;3.00;99.90;;;;;;12592019;28;20040;-85
2021/03/10 01:47:16;;;;;;;75.75;31.17;;;3.00;99.90;;;;;;12602349;28;20101;-85
2021/03/10 01:53:18;;;;;;;72.22;31.30;;;3.00;99.90;;;;;;12588856;28;20101;-86
2021/03/10 01:59:20;;;;;;;77.70;30.98;;;3.00;99.90;;;;;;12600672;28;20056;-85
2021/03/10 02:05:24;;;;;;;69.13;30.75;;;3.00;99.90;;;;;;12593428;28;20052;-85
2021/03/10 02:11:38;;;;;;;79.80;32.05;;;3.00;99.90;;;;;;12599599;28;20071;-85
2021/03/10 02:17:48;;;;;;;67.68;32.85;;;3.20;99.90;;;;;;12594977;28;20090;-85
2021/03/10 02:24:20;;;;;;;67.82;33.03;;;3.40;99.90;;;;;;12605601;28;20055;-85
2021/03/10 02:30:28;;;;;;;70.95;34.28;;;3.50;99.90;;;;;;12593600;28;20043;-85
2021/03/10 02:36:30;;;;;;;72.40;34.80;;;3.40;99.90;;;;;;12596645;28;20040;-85
2021/03/10 02:42:33;;;;;;;66.40;34.47;;;3.40;99.90;;;;;;12591555;28;20071;-85
2021/03/10 02:48:36;;;;;;;69.88;35.22;;;3.60;99.90;;;;;;12597966;28;20067;-85
2021/03/10 02:54:40;;;;;;;67.38;34.88;;;3.80;99.90;;;;;;12588008;28;20048;-85
2021/03/10 03:00:42;;;;;;;71.38;36.17;;;3.50;99.90;;;;;;12597387;28;20051;-85
2021/03/10 03:06:43;;;;;;;67.82;35.33;;;3.60;99.90;;;;;;12595946;28;20472;-85
2021/03/10 03:12:46;;;;;;;74.00;37.70;;;3.60;99.90;;;;;;12586281;28;20522;-85
2021/03/10 03:18:47;;;;;;;74.28;35.15;;;3.40;99.90;;;;;;12587398;28;20071;-85
2021/03/10 03:24:50;;;;;;;71.60;37.30;;;3.60;99.90;;;;;;12584861;28;20132;-86
2021/03/10 03:30:54;;;;;;;63.60;35.03;;;3.40;99.90;;;;;;12588632;28;20076;-86
2021/03/10 03:36:56;;;;;;;;;;;3.40;99.90;;;;;;12600904;28;20040;-85
2021/03/10 03:42:57;;;;;;;72.50;37.10;;;3.20;99.90;;;;;;12604079;28;19931;-86
2021/03/10 03:48:59;;;;;;;73.43;35.42;;;3.40;99.90;;;;;;12603217;28;20075;-85
2021/03/10 03:55:01;;;;;;;67.60;36.55;;;3.40;99.90;;;;;;12600478;28;20044;-85
2021/03/10 04:01:02;;;;;;;67.07;36.33;;;3.50;99.90;;;;;;12559536;28;20123;-86
2021/03/10 04:07:03;;;;;;;69.90;36.42;;;3.50;99.90;;;;;;12564843;28;20095;-85
2021/03/10 04:13:05;;;;;;;73.22;36.42;;;3.60;99.90;;;;;;12572045;28;20127;-85
2021/03/10 04:19:07;;;;;;;76.22;38.20;;;3.30;99.90;;;;;;12561218;28;20045;-85
2021/03/10 04:25:10;;;;;;;79.18;38.85;;;3.10;99.90;;;;;;12568826;28;20083;-85
2021/03/10 04:31:11;;;;;;;89.13;39.67;;;3.00;99.90;;;;;;12557880;28;20040;-85
2021/03/10 04:37:13;;;;;;;85.57;39.65;;;3.00;99.90;;;;;;12550205;28;20095;-85
2021/03/10 04:43:15;;;;;;;98.85;42.30;;;2.90;99.90;;;;;;12549852;28;20105;-85
2021/03/10 04:49:16;;;;;;;92.97;42.15;;;2.80;99.90;;;;;;12558539;28;20577;-86
2021/03/10 04:55:18;;;;;;;126.13;44.42;;;2.70;99.90;;;;;;12546454;28;20040;-85
2021/03/10 05:01:19;;;;;;;96.18;43.50;;;2.70;99.90;;;;;;12586444;28;20075;-85
2021/03/10 05:07:20;;;;;;;122.85;42.28;;;2.70;99.90;;;;;;12586735;28;20055;-85
2021/03/10 05:13:22;;;;;;;92.72;41.65;;;2.60;99.90;;;;;;12591912;28;20540;-84
2021/03/10 05:19:23;;;;;;;98.15;43.38;;;2.60;99.90;;;;;;12582589;28;20044;-85
2021/03/10 05:25:24;;;;;;;104.03;42.80;;;2.70;99.90;;;;;;12593405;28;20190;-85
2021/03/10 05:31:26;;;;;;;117.40;43.88;;;2.60;99.90;;;;;;12590111;28;20458;-85
2021/03/10 05:37:27;;;;;;;106.28;43.13;;;2.60;99.90;;;;;;12595444;28;20440;-85
2021/03/10 05:43:30;;;;;;;99.65;42.67;;;2.60;99.90;;;;;;12591293;28;20488;-85
2021/03/10 05:49:31;;;;;;;100.57;43.30;;;2.60;99.90;;;;;;12611325;28;20181;-85
2021/03/10 05:55:33;;;;;;;105.05;44.45;;;2.60;99.90;;;;;;12585177;28;20051;-86
2021/03/10 06:01:34;;;;;;;100.80;43.08;;;2.50;99.90;;;;;;12588271;28;20153;-86
2021/03/10 06:07:36;;;;;;;83.15;36.85;;;2.50;99.90;;;;;;12569688;28;20048;-86
2021/03/10 06:13:44;;;;;;;76.28;34.72;;;2.50;99.90;;;;;;12571390;28;20047;-86
2021/03/10 06:19:46;;;;;;;72.25;35.38;;;2.60;99.90;;;;;;12568545;28;20082;-86
2021/03/10 06:25:49;;;;;;;71.00;33.50;;;2.50;99.90;;;;;;12551584;28;20374;-86
2021/03/10 06:32:06;;;;;;;71.10;35.38;;;2.50;99.90;;;;;;12565641;28;20044;-86
2021/03/10 06:38:26;;;;;;;65.07;31.42;;;2.50;99.90;;;;;;12572327;28;20051;-86
2021/03/10 06:44:30;;;;;;;53.85;28.90;;;2.50;99.90;;;;;;12562168;28;20524;-86
2021/03/10 06:50:36;;;;;;;56.15;29.63;;;2.60;99.90;;;;;;12585220;28;20093;-86
2021/03/10 06:56:37;;;;;;;49.95;28.98;;;2.60;99.90;;;;;;12566757;28;20109;-86
2021/03/10 07:02:40;;;;;;;57.00;29.17;;;2.60;99.90;;;;;;12587920;28;20092;-86
2021/03/10 07:08:42;;;;;;;55.08;29.10;;;2.70;99.90;;;;;;12600260;28;20412;-87
2021/03/10 07:14:46;;;;;;;48.50;27.83;;;2.70;99.90;;;;;;12592623;28;20498;-86
2021/03/10 07:20:48;;;;;;;51.08;29.83;;;3.00;99.90;;;;;;12581799;28;20121;-86
2021/03/10 07:26:50;;;;;;;46.38;27.63;;;3.10;99.90;;;;;;12595465;28;20072;-86
2021/03/10 07:33:02;;;;;;;44.75;27.13;;;3.20;99.90;;;;;;12587395;28;20092;-86
2021/03/10 07:39:06;;;;;;;48.50;27.90;;;3.40;99.90;;;;;;12598861;28;20048;-86
2021/03/10 07:45:08;;;;;;;49.72;27.58;;;3.50;99.90;;;;;;12592748;28;20096;-86
2021/03/10 07:51:09;;;;;;;46.28;27.33;;;3.50;99.90;;;;;;12600388;28;20051;-86
2021/03/10 07:57:12;;;;;;;52.90;30.40;;;3.50;99.90;;;;;;12593194;28;20044;-85
2021/03/10 08:03:14;;;;;;;58.95;31.90;;;3.60;99.90;;;;;;12593320;28;20503;-86
2021/03/10 08:09:18;;;;;;;53.65;29.83;;;3.60;99.90;;;;;;12595390;28;20159;-86
2021/03/10 08:15:23;;;;;;;51.38;29.30;;;3.60;99.90;;;;;;12594453;28;20102;-86
2021/03/10 08:21:24;;;;;;;50.97;28.63;;;3.70;99.90;;;;;;12595243;28;20071;-86
2021/03/10 08:27:32;;;;;;;42.05;25.67;;;3.80;99.90;;;;;;12590011;28;20047;-87
2021/03/10 08:33:49;;;;;;;48.40;27.05;;;3.90;99.90;;;;;;12593108;28;20539;-86
2021/03/10 08:39:50;;;;;;;49.65;27.83;;;4.10;99.90;;;;;;12596886;28;20159;-86
2021/03/10 08:45:55;;;;;;;41.63;24.92;;;4.30;99.90;;;;;;12590040;28;20063;-87
2021/03/10 08:52:05;;;;;;;43.58;25.20;;;4.40;99.90;;;;;;12584050;28;20052;-87
2021/03/10 08:58:10;;;;;;;46.38;28.75;;;4.50;99.90;;;;;;12592626;28;20493;-86
2021/03/10 09:04:12;;;;;;;46.97;27.30;;;4.60;99.90;;;;;;12609194;28;20051;-86
2021/03/10 09:10:16;;;;;;;45.67;26.40;;;4.60;99.90;;;;;;12593054;28;20079;-87
2021/03/10 09:16:18;;;;;;;44.95;27.67;;;4.80;99.90;;;;;;12603755;28;20044;-86
2021/03/10 09:22:23;;;;;;;51.63;29.63;;;4.60;99.90;;;;;;12605970;28;20483;-87
2021/03/10 09:28:36;;;;;;;51.15;30.38;;;4.70;99.90;;;;;;12605941;28;20047;-87
2021/03/10 09:34:38;;;;;;;55.92;31.15;;;4.70;99.90;;;;;;12593252;28;20037;-86
2021/03/10 09:40:44;;;;;;;56.13;32.10;;;5.00;99.90;;;;;;12589334;28;20044;-87
2021/03/10 09:46:47;;;;;;;55.33;31.35;;;5.20;99.90;;;;;;12595973;28;20044;-86
2021/03/10 09:52:48;;;;;;;56.50;32.05;;;5.00;99.90;;;;;;12603261;28;20036;-86
2021/03/10 09:58:52;;;;;;;56.55;31.80;;;4.90;99.90;;;;;;12602848;28;20051;-86
2021/03/10 10:05:03;;;;;;;52.55;30.58;;;5.20;99.90;;;;;;12607707;28;20067;-86
2021/03/10 10:11:06;;;;;;;54.08;31.13;;;5.40;99.90;;;;;;12601411;28;20506;-87
2021/03/10 10:17:17;;;;;;;58.65;31.50;;;5.60;99.90;;;;;;12619427;28;20105;-87
2021/03/10 10:23:18;;;;;;;50.40;28.75;;;5.80;99.90;;;;;;12603053;28;20079;-86
2021/03/10 10:29:20;;;;;;;52.28;29.70;;;5.90;99.90;;;;;;12597482;28;20044;-86
2021/03/10 10:35:22;;;;;;;55.45;31.13;;;6.20;99.90;;;;;;12601400;28;20392;-87
2021/03/10 10:41:23;;;;;;;62.60;31.35;;;6.20;99.90;;;;;;12617039;28;20059;-87
2021/03/10 10:47:26;;;;;;;59.50;31.02;;;6.30;99.90;;;;;;12600163;28;20135;-87
2021/03/10 10:53:27;;;;;;;60.00;32.13;;;6.60;99.90;;;;;;12601292;28;20083;-87
2021/03/10 10:59:29;;;;;;;60.10;33.00;;;6.80;99.90;;;;;;12600695;28;20070;-86
2021/03/10 11:05:30;;;;;;;53.28;30.05;;;7.10;99.90;;;;;;12600028;28;20082;-87
2021/03/10 11:11:32;;;;;;;49.25;28.13;;;7.40;99.90;;;;;;12594128;28;20043;-87
2021/03/10 11:17:34;;;;;;;46.38;26.45;;;7.60;99.90;;;;;;12601107;28;20571;-87
2021/03/10 11:23:35;;;;;;;48.00;27.08;;;7.40;99.90;;;;;;12592387;28;20051;-87
2021/03/10 11:29:38;;;;;;;43.55;25.73;;;7.80;99.90;;;;;;12596471;28;20039;-87
2021/03/10 11:35:40;;;;;;;42.65;24.50;;;7.20;99.90;;;;;;12588993;28;20040;-87
2021/03/10 11:41:41;;;;;;;37.78;23.25;;;7.30;99.90;;;;;;12586680;28;20120;-87
2021/03/10 11:47:43;;;;;;;42.92;24.48;;;7.30;99.90;;;;;;12588225;28;20049;-87
2021/03/10 11:53:44;;;;;;;38.15;22.70;;;7.30;99.90;;;;;;12568659;28;20051;-86
2021/03/10 11:59:45;;;;;;;35.95;21.35;;;7.30;99.90;;;;;;12594960;28;20100;-87
2021/03/10 12:05:47;;;;;;;36.53;21.55;;;7.20;99.90;;;;;;12602043;28;20128;-87
2021/03/10 12:11:50;;;;;;;35.08;20.35;;;7.30;99.90;;;;;;12595261;28;20042;-87
2021/03/10 12:17:57;;;;;;;30.55;18.52;;;7.80;99.90;;;;;;12600096;28;20703;-86
2021/03/10 12:23:59;;;;;;;29.83;17.70;;;7.90;99.90;;;;;;12602912;28;21000;-87
2021/03/10 12:30:03;;;;;;;32.58;19.90;;;7.60;99.90;;;;;;12582065;28;20787;-87
2021/03/10 12:36:05;;;;;;;32.57;18.77;;;7.70;99.90;;;;;;12620565;28;20039;-87
2021/03/10 12:42:08;;;;;;;37.58;20.77;;;7.50;99.90;;;;;;12647932;28;20294;-85
2021/03/10 12:48:17;;;;;;;27.83;17.55;;;7.50;99.90;;;;;;12642051;28;20056;-87
2021/03/10 12:54:19;;;;;;;28.25;17.20;;;7.60;99.90;;;;;;12598652;28;20048;-86
2021/03/10 13:00:23;;;;;;;28.75;18.35;;;7.50;99.90;;;;;;12610567;28;20051;-86
2021/03/10 13:06:25;;;;;;;26.35;16.60;;;7.50;99.90;;;;;;12601631;28;20089;-86
2021/03/10 13:12:26;;;;;;;24.77;15.32;;;7.80;99.90;;;;;;12607211;28;20068;-86
2021/03/10 13:18:42;;;;;;;24.05;15.27;;;7.60;99.90;;;;;;12603121;28;20097;-87
2021/03/10 13:24:44;;;;;;;24.35;16.67;;;8.00;99.90;;;;;;12606330;28;20135;-86
2021/03/10 13:30:45;;;;;;;25.88;15.20;;;8.00;99.90;;;;;;12605435;28;20036;-86
2021/03/10 13:36:48;;;;;;;23.42;14.27;;;7.90;99.90;;;;;;12624479;28;20131;-86
2021/03/10 13:42:50;;;;;;;24.55;15.63;;;8.00;99.90;;;;;;12600090;28;20040;-85
2021/03/10 13:49:03;;;;;;;24.40;14.63;;;7.90;99.90;;;;;;12624855;28;20063;-86
2021/03/10 13:55:08;;;;;;;26.75;15.32;;;7.70;99.90;;;;;;12621914;28;20477;-87
2021/03/10 14:01:11;;;;;;;24.02;15.20;;;7.90;99.90;;;;;;12604363;28;20054;-86
2021/03/10 14:07:12;;;;;;;24.75;15.95;;;7.80;99.90;;;;;;12603722;28;20055;-86
2021/03/10 14:13:13;;;;;;;25.20;15.65;;;7.80;99.90;;;;;;12600321;28;20044;-86
2021/03/10 14:19:27;;;;;;;25.08;15.23;;;7.70;99.90;;;;;;12607107;28;20055;-86
2021/03/10 14:25:29;;;;;;;24.55;15.55;;;7.70;99.90;;;;;;12599812;28;20136;-86
2021/03/10 14:31:31;;;;;;;30.98;15.73;;;7.60;99.90;;;;;;12604341;28;20079;-86
2021/03/10 14:37:34;;;;;;;28.02;16.88;;;7.60;99.90;;;;;;12601418;28;20575;-86
2021/03/10 14:43:37;;;;;;;26.85;16.75;;;7.80;99.90;;;;;;12594037;28;20040;-85
2021/03/10 14:49:48;;;;;;;27.30;16.75;;;7.80;99.90;;;;;;12622193;28;20063;-86
2021/03/10 14:55:50;;;;;;;28.73;17.48;;;7.80;99.90;;;;;;12595068;28;20067;-85
2021/03/10 15:01:52;;;;;;;28.92;18.50;;;7.80;99.90;;;;;;12595321;28;20056;-86
2021/03/10 15:07:53;;;;;;;29.58;18.30;;;7.90;99.90;;;;;;12614385;28;20052;-86
2021/03/10 15:13:55;;;;;;;28.38;18.95;;;7.90;99.90;;;;;;12618671;28;20518;-86
2021/03/10 15:20:12;;;;;;;33.80;19.63;;;7.80;99.90;;;;;;12616477;28;20056;-86
2021/03/10 15:26:14;;;;;;;33.80;20.15;;;7.80;99.90;;;;;;12593839;28;20093;-86
2021/03/10 15:32:15;;;;;;;32.72;20.15;;;7.70;99.90;;;;;;12616047;28;20047;-86
2021/03/10 15:38:17;;;;;;;33.83;20.15;;;7.60;99.90;;;;;;12599506;28;21119;-86
2021/03/10 15:44:18;;;;;;;31.42;20.17;;;7.60;99.90;;;;;;12593531;28;20081;-86
2021/03/10 15:50:39;;;;;;;36.35;21.25;;;7.60;99.90;;;;;;12602639;28;20048;-86
2021/03/10 15:56:40;;;;;;;34.28;20.42;;;7.50;99.90;;;;;;12612431;28;20086;-86
2021/03/10 16:02:41;;;;;;;36.30;20.85;;;7.50;99.90;;;;;;12592040;28;20082;-86
2021/03/10 16:08:43;;;;;;;34.13;21.02;;;7.50;99.90;;;;;;12595068;28;20546;-86
2021/03/10 16:14:45;;;;;;;39.15;21.52;;;7.40;99.90;;;;;;12597121;28;20040;-85
2021/03/10 16:21:03;;;;;;;38.28;21.65;;;7.40;99.90;;;;;;12594446;28;20484;-85
2021/03/10 16:27:04;;;;;;;38.42;21.40;;;7.40;99.90;;;;;;12593413;28;20097;-85
2021/03/10 16:33:06;;;;;;;41.35;21.38;;;7.40;99.90;;;;;;12609468;28;20093;-85
2021/03/10 16:39:07;;;;;;;41.25;22.30;;;7.40;99.90;;;;;;12584292;28;20108;-86
2021/03/10 16:45:09;;;;;;;35.67;21.15;;;7.40;99.90;;;;;;12613301;28;20056;-86
2021/03/10 16:51:24;;;;;;;38.00;22.35;;;7.40;99.90;;;;;;12612650;28;20087;-85
2021/03/10 16:57:25;;;;;;;39.42;23.08;;;7.40;99.90;;;;;;12592747;28;20085;-86
2021/03/10 17:03:30;;;;;;;39.03;22.55;;;7.40;99.90;;;;;;12592994;28;20071;-85
2021/03/10 17:09:32;;;;;;;42.90;22.35;;;7.40;99.90;;;;;;12597894;28;20083;-86
2021/03/10 17:15:34;;;;;;;33.42;20.35;;;7.30;99.90;;;;;;12588028;28;20044;-86
2021/03/10 17:21:46;;;;;;;33.10;18.95;;;7.40;99.90;;;;;;12594084;28;20580;-85
2021/03/10 17:27:47;;;;;;;33.33;19.83;;;7.30;99.90;;;;;;12587570;28;20052;-86
2021/03/10 17:33:48;;;;;;;30.05;18.50;;;7.30;99.90;;;;;;12619990;28;20122;-86
2021/03/10 17:39:50;;;;;;;35.28;19.65;;;7.20;99.90;;;;;;12601473;28;20044;-84
2021/03/10 17:45:52;;;;;;;31.83;18.08;;;7.20;99.90;;;;;;12626981;28;20047;-85
2021/03/10 17:51:58;;;;;;;33.08;18.63;;;7.20;99.90;;;;;;12617578;28;20040;-84
2021/03/10 17:57:59;;;;;;;28.08;15.65;;;7.10;99.90;;;;;;12607351;28;20064;-84
2021/03/10 18:04:01;;;;;;;26.67;15.88;;;7.10;99.90;;;;;;12603093;28;20116;-84
2021/03/10 18:10:04;;;;;;;26.92;16.38;;;6.90;99.90;;;;;;12603648;28;20044;-84
2021/03/10 18:16:06;;;;;;;22.48;13.13;;;6.70;99.90;;;;;;12608513;28;20490;-84
2021/03/10 18:22:11;;;;;;;24.50;13.80;;;6.70;99.90;;;;;;12601944;28;20651;-84
2021/03/10 18:28:12;;;;;;;22.48;13.63;;;6.70;99.90;;;;;;12620393;28;20056;-84
2021/03/10 18:34:14;;;;;;;17.45;11.45;;;6.80;99.90;;;;;;12617298;28;20500;-84
2021/03/10 18:40:15;;;;;;;19.40;11.73;;;6.90;99.90;;;;;;12600737;28;20485;-84
2021/03/10 18:46:17;;;;;;;20.08;12.00;;;6.80;99.90;;;;;;12597242;28;20067;-84
2021/03/10 18:52:19;;;;;;;22.00;13.13;;;6.80;99.90;;;;;;12600765;28;20055;-84
2021/03/10 18:58:21;;;;;;;22.00;12.48;;;6.90;99.90;;;;;;12618658;28;20096;-84
2021/03/10 19:04:23;;;;;;;21.27;12.35;;;6.90;99.90;;;;;;12591492;28;20101;-84
2021/03/10 19:10:24;;;;;;;21.50;13.00;;;6.80;99.90;;;;;;12587342;28;20128;-84
2021/03/10 19:16:30;;;;;;;20.10;11.45;;;6.90;99.90;;;;;;12600547;28;20089;-84
2021/03/10 19:22:36;;;;;;;18.17;10.80;;;7.00;99.90;;;;;;12604075;28;20051;-84
2021/03/10 19:28:38;;;;;;;17.42;9.98;;;7.00;99.90;;;;;;12617697;28;20048;-84
2021/03/10 19:34:40;;;;;;;16.33;9.55;;;7.00;99.90;;;;;;12598228;28;20119;-85
2021/03/10 19:40:41;;;;;;;17.77;9.68;;;7.00;99.90;;;;;;12599905;28;20381;-85
2021/03/10 19:46:43;;;;;;;16.05;11.25;;;7.10;99.90;;;;;;12603658;28;20058;-84
2021/03/10 19:52:45;;;;;;;18.90;10.70;;;7.00;99.90;;;;;;12604238;28;20040;-84
2021/03/10 19:58:46;;;;;;;19.50;10.90;;;7.00;99.90;;;;;;12603512;28;20089;-84
2021/03/10 20:04:51;;;;;;;17.45;11.70;;;7.00;99.90;;;;;;12601329;28;20048;-84
2021/03/10 20:10:52;;;;;;;19.13;12.00;;;7.00;99.90;;;;;;12593138;28;20123;-84
2021/03/10 20:16:54;;;;;;;17.40;10.93;;;7.00;99.90;;;;;;12610729;28;20915;-84
2021/03/10 20:22:57;;;;;;;21.10;12.07;;;7.00;99.90;;;;;;12594917;28;20063;-84
2021/03/10 20:28:58;;;;;;;21.45;12.68;;;6.90;99.90;;;;;;12611402;28;20416;-84
2021/03/10 20:35:00;;;;;;;22.63;13.60;;;7.00;99.90;;;;;;12590901;28;20564;-84
2021/03/10 20:41:03;;;;;;;23.33;13.35;;;7.00;99.90;;;;;;12599069;28;20090;-84
2021/03/10 20:47:04;;;;;;;22.17;14.35;;;7.10;99.90;;;;;;12603218;28;20048;-85
2021/03/10 20:53:06;;;;;;;21.55;13.98;;;7.10;99.90;;;;;;12599148;28;20065;-85
2021/03/10 20:59:08;;;;;;;29.63;16.60;;;7.10;99.90;;;;;;12610190;28;20048;-85
2021/03/10 21:05:12;;;;;;;31.40;17.63;;;7.10;99.90;;;;;;12620033;28;20073;-85
2021/03/10 21:11:13;;;;;;;27.05;16.60;;;7.20;99.90;;;;;;12603576;28;20128;-84
2021/03/10 21:17:16;;;;;;;26.60;17.08;;;7.20;99.90;;;;;;12613548;28;20105;-84
2021/03/10 21:23:20;;;;;;;26.60;16.52;;;7.20;99.90;;;;;;12609294;28;20071;-85
2021/03/10 21:29:22;;;;;;;27.77;17.08;;;7.30;99.90;;;;;;12604662;28;20167;-85
2021/03/10 21:35:23;;;;;;;25.48;16.25;;;7.40;99.90;;;;;;12612712;28;20512;-85
2021/03/10 21:41:24;;;;;;;29.13;17.50;;;7.30;99.90;;;;;;12610029;28;20915;-85
2021/03/10 21:47:26;;;;;;;29.00;18.48;;;7.30;99.90;;;;;;12633394;28;20062;-83
2021/03/10 21:53:28;;;;;;;30.02;17.98;;;7.30;99.90;;;;;;12604287;28;20044;-85
2021/03/10 21:59:29;;;;;;;29.10;17.98;;;7.30;99.90;;;;;;12601153;28;20155;-85
2021/03/10 22:05:31;;;;;;;32.53;17.50;;;7.20;99.90;;;;;;12595348;28;20040;-84
2021/03/10 22:11:32;;;;;;;31.08;17.73;;;7.10;99.90;;;;;;12597048;28;20070;-84
2021/03/10 22:17:34;;;;;;;31.02;17.05;;;7.20;99.90;;;;;;12594768;28;20400;-85
2021/03/10 22:23:36;;;;;;;27.95;16.75;;;7.10;99.90;;;;;;12606598;28;20044;-84
2021/03/10 22:29:37;;;;;;;28.30;17.45;;;7.20;99.90;;;;;;12610915;28;20080;-84
2021/03/10 22:35:39;;;;;;;27.73;16.55;;;7.00;99.90;;;;;;12603433;28;20814;-84
2021/03/10 22:41:41;;;;;;;28.20;18.60;;;7.00;99.90;;;;;;12598857;28;20066;-84
2021/03/10 22:47:42;;;;;;;27.80;16.80;;;6.90;99.90;;;;;;12610192;28;20095;-83
2021/03/10 22:53:44;;;;;;;28.70;18.05;;;6.90;99.90;;;;;;12604245;28;20072;-84
2021/03/10 22:59:45;;;;;;;37.58;18.60;;;6.80;99.90;;;;;;12607696;28;20111;-84
2021/03/10 23:05:46;;;;;;;33.30;17.95;;;6.60;99.90;;;;;;12603849;28;20143;-84
2021/03/10 23:11:48;;;;;;;33.70;19.10;;;6.50;99.90;;;;;;12622156;28;20496;-84
2021/03/10 23:17:50;;;;;;;32.63;19.17;;;6.30;99.90;;;;;;12621662;28;20128;-84
2021/03/10 23:23:51;;;;;;;30.23;19.63;;;6.20;99.90;;;;;;12602473;28;20048;-85
2021/03/10 23:29:52;;;;;;;28.40;17.13;;;6.10;99.90;;;;;;12601308;28;20101;-85
2021/03/10 23:35:54;;;;;;;31.77;18.15;;;6.10;99.90;;;;;;12606165;28;20044;-85
2021/03/10 23:41:55;;;;;;;31.05;18.77;;;6.10;99.90;;;;;;12616423;28;20044;-84
2021/03/10 23:47:57;;;;;;;32.63;19.52;;;5.90;99.90;;;;;;12598903;28;20097;-85
2021/03/10 23:53:58;;;;;;;37.60;20.55;;;5.80;99.90;;;;;;12581350;28;20039;-85
2021/03/10 23:59:59;;;;;;;33.45;19.42;;;5.80;99.90;;;;;;12594532;28;20116;-84
